CST,Max TemperatureF,Mean TemperatureF,Min TemperatureF,Max Dew PointF,MeanDew PointF,Min DewpointF,Max Humidity, Mean Humidity, Min Humidity, Max Sea Level PressureIn, Mean Sea Level PressureIn, Min Sea Level PressureIn, Max VisibilityMiles, Mean VisibilityMiles, Min VisibilityMiles, Max Wind SpeedMPH, Mean Wind SpeedMPH, Max Gust SpeedMPH,PrecipitationIn, CloudCover, Events, WindDirDegrees
2012-12-1,77,68,59,61,57,54,88,73,54,30.10,30.05,29.98,10,10,10,21,10,26,0.00,5,,166
2012-12-2,78,71,62,61,59,55,88,72,44,30.14,30.07,30.03,10,10,10,17,11,24,0.00,4,,179
2012-12-3,78,69,60,63,59,54,94,79,42,30.06,30.01,29.94,10,10,10,21,10,29,0.00,4,,161
2012-12-4,71,58,44,63,53,36,88,69,41,30.27,30.12,30.01,10,10,7,16,10,21,0.00,4,,308
2012-12-5,66,55,44,46,41,34,82,62,46,30.30,30.19,30.08,10,10,10,10,7,,0.00,4,,80
2012-12-6,62,53,44,50,48,43,100,85,63,30.07,29.97,29.88,10,8,2,12,7,18,0.00,5,,121
2012-12-7,69,60,50,57,53,45,100,81,53,29.91,29.85,29.79,10,6,1,13,6,16,0.00,7,,156
2012-12-8,69,60,51,59,50,46,88,70,43,29.92,29.86,29.81,10,10,7,9,3,,0.00,6,,203
2012-12-9,77,60,44,64,53,30,94,74,44,29.95,29.82,29.75,10,8,5,21,11,28,0.00,2,,245
2012-12-10,46,36,26,28,18,14,75,50,31,30.13,30.06,29.94,10,10,10,21,12,28,0.00,1,,327
2012-12-11,50,34,17,23,16,12,86,56,24,30.27,30.19,30.11,10,10,10,9,2,,0.00,0,,103
2012-12-12,53,36,19,23,15,9,93,49,16,30.36,30.29,30.25,10,10,10,10,3,,0.00,0,,125
2012-12-13,60,43,26,23,20,14,69,45,20,30.36,30.30,30.22,10,10,10,10,5,,0.00,0,,120
2012-12-14,55,44,33,45,31,21,82,60,36,30.24,30.10,29.91,10,10,7,13,7,16,0.05,5,,101
2012-12-15,69,60,50,55,42,32,100,60,25,29.90,29.85,29.80,10,9,2,17,9,23,0.22,2,,208
2012-12-16,68,57,46,43,39,34,82,58,30,29.83,29.75,29.69,10,10,10,10,5,,0.00,0,,203
2012-12-17,60,48,35,43,36,32,93,66,34,29.88,29.81,29.71,10,10,10,13,5,22,0.00,0,,259
2012-12-18,73,52,32,37,32,28,93,59,20,29.87,29.82,29.76,10,10,10,14,4,20,0.00,0,,135
2012-12-19,73,58,44,61,51,34,83,71,58,29.82,29.71,29.54,10,10,10,21,10,25,0.00,4,,134
2012-12-20,57,45,33,50,18,3,77,40,15,30.38,30.13,29.67,10,10,7,31,18,40,0.00,1,,294
2012-12-21,62,44,26,19,14,10,59,35,13,30.45,30.36,30.29,10,10,10,12,6,20,0.00,0,,239
2012-12-22,64,45,26,36,23,18,87,45,18,30.32,30.21,30.06,10,10,10,15,5,18,0.00,0,,176
2012-12-23,68,56,44,52,45,36,87,67,52,30.05,29.91,29.80,10,10,10,15,8,20,0.00,3,,203
2012-12-24,60,46,33,36,32,30,87,61,31,30.01,29.90,29.85,10,10,7,12,5,,0.00,0,,291
2012-12-25,50,40,28,37,33,27,100,83,50,30.00,29.80,29.66,10,6,0,24,13,31,2.09,6,,31
2012-12-26,37,29,21,28,23,18,93,83,65,30.23,30.14,30.01,10,9,2,18,9,23,0.15,2,,295
2012-12-27,33,28,23,32,28,21,100,95,86,30.18,30.07,29.96,7,5,1,10,6,,0.01,7,,103
2012-12-28,35,32,30,36,32,27,100,92,75,30.14,29.98,29.89,10,6,1,15,7,20,0.04,7,,340
2012-12-29,42,32,21,25,19,16,86,62,36,30.46,30.33,30.14,10,10,10,13,6,18,0.00,0,,303
2012-12-30,42,30,17,28,23,16,93,72,49,30.49,30.40,30.27,10,10,10,10,3,,0.00,0,,110
2012-12-31,39,37,35,37,34,28,100,87,70,30.28,30.10,30.00,10,6,0,12,5,17,0.29,7,,75